M I D A S
Marine Information and Data Acquisition System
Tripno 681 of the Zeeleeuw from 2004-04-01 06:13:06 to 2004-04-01 13:39:56
Back to CruiseResearch ActivitiesStationsMapUnderway DataData graphs

EquipmentUnitsComment
TimeDGPSUTC
LatitudeDGPSDM.mWGS84
LongitudeDGPSDM.mWGS84
TemperatureSBE03/SBE38deg celciusITS90
ConductivitySBE21S/mITS90
SalinitySBE21 Practical Salinity Units
ChlorophylAChelsea fluorimeterg/lCalibrated in Aceton
Missing or incorrect values are displayed as -999
Sea surface data collected by the RV Zeeleeuw from 2004-04-01 06:13:06 to 2004-04-01 13:39:56
Time Latitude Longitude Temperature Conductivity Salinity ChlorophylA
2004-04-01 06:14:08 51°13.597 2°56.091 15.33143 0.011832 0.060091 -0.578993
2004-04-01 06:15:09 51°13.617 2°56.015 15.445365 0.011832 0.060096 -0.612702
2004-04-01 06:16:09 51°13.65 2°55.91 15.47384 0.011832 0.060101 -0.612702
2004-04-01 06:17:09 51°13.674 2°55.78 15.468742 0.011832 0.060106 -0.612702
2004-04-01 06:18:08 51°13.691 2°55.765 15.601423 0.011832 0.06011 -0.578993
2004-04-01 06:19:09 51°13.685 2°55.761 15.51107 0.011832 0.060117 -0.612702
2004-04-01 06:20:08 51°13.732 2°55.731 15.475309 0.011832 0.060123 -0.545283
2004-04-01 06:21:09 51°13.831 2°55.638 15.467101 0.011832 0.060128 -0.578993
2004-04-01 06:22:08 51°13.948 2°55.542 15.446186 0.011832 0.060133 -0.578993
2004-04-01 06:23:08 51°14.071 2°55.455 15.480795 0.011728 0.059666 -0.578993
2004-04-01 06:24:09 51°14.221 2°55.327 15.479672 0.011832 0.060144 -0.578993
2004-04-01 06:25:08 51°14.351 2°55.106 15.449816 0.011728 0.059678 -0.578993
2004-04-01 06:26:08 51°14.479 2°54.822 15.403472 0.011728 0.059682 -0.612702
2004-04-01 06:27:08 51°14.639 2°54.559 15.386042 0.011728 0.059688 -0.578993
2004-04-01 06:28:08 51°14.799 2°54.293 15.429199 0.011728 0.059692 -0.578993
2004-04-01 06:29:08 51°14.956 2°54.03 15.411213 0.011832 0.060169 -0.578993
2004-04-01 06:30:08 51°15.12 2°53.776 15.352509 0.011728 0.059701 -0.578993
2004-04-01 06:31:09 51°15.318 2°53.586 15.342685 0.011728 0.059707 -0.612702
2004-04-01 06:32:08 51°15.523 2°53.444 15.341949 0.011728 0.059711 -0.612702
2004-04-01 06:33:08 51°15.736 2°53.312 15.381976 0.011728 0.059718 -0.578993
2004-04-01 06:34:08 51°15.947 2°53.177 15.351038 0.011728 0.059723 -0.578993
2004-04-01 06:35:08 51°16.161 2°53.05 15.324156 0.011728 0.059728 -0.612702
2004-04-01 06:36:08 51°16.378 2°52.946 15.402261 0.011728 0.059734 -0.578993
2004-04-01 06:37:08 51°16.594 2°52.842 15.34948 0.011728 0.05974 -0.578993
2004-04-01 06:38:08 51°16.807 2°52.736 15.370814 0.011728 0.059746 -0.545283
2004-04-01 06:39:08 51°17.019 2°52.635 15.371939 0.011728 0.059752 -0.578993
2004-04-01 06:40:08 51°17.236 2°52.553 15.31082 0.011728 0.059758 -0.578993
2004-04-01 06:41:08 51°17.453 2°52.469 15.325672 0.011728 0.059765 -0.578993
2004-04-01 06:42:08 51°17.674 2°52.427 15.311686 0.011728 0.059771 -0.612702
2004-04-01 06:43:08 51°17.896 2°52.439 8.860626 3.785746 27.567713 -0.578993
2004-04-01 06:44:08 51°18.115 2°52.496 8.348448 3.460793 32.45033 -0.612702
2004-04-01 06:45:08 51°18.321 2°52.629 8.238757 3.420133 32.269176 -0.612702
2004-04-01 06:46:08 51°18.471 2°52.884 8.076768 3.428667 32.444824 -0.612702
2004-04-01 06:47:09 51°18.596 2°53.184 8.13081 3.42319 32.506996 -0.578993
2004-04-01 06:48:08 51°18.706 2°53.488 8.13805 3.41392 32.390887 -0.578993
2004-04-01 06:49:08 51°18.795 2°53.818 8.153012 3.325124 31.459255 -0.578993
2004-04-01 06:50:08 51°18.887 2°54.147 8.133947 3.403281 32.296474 -0.612702
2004-04-01 06:51:08 51°18.981 2°54.475 8.131534 3.396434 32.237368 -0.612702
2004-04-01 06:52:08 51°19.077 2°54.801 8.134092 3.39201 32.198412 -0.578993
2004-04-01 06:53:09 51°19.175 2°55.131 8.149151 3.391483 32.18676 -0.578993
2004-04-01 06:54:08 51°19.27 2°55.451 8.164641 3.389798 32.159866 -0.612702
2004-04-01 06:55:08 51°19.366 2°55.778 8.188086 3.387691 32.119425 -0.578993
2004-04-01 06:56:09 51°19.465 2°56.11 8.190835 3.384215 32.074508 -0.612702
2004-04-01 06:57:08 51°19.56 2°56.431 8.193246 3.379159 32.030452 -0.612702
2004-04-01 06:58:08 51°19.658 2°56.757 8.195513 3.376947 32.001131 -0.612702
2004-04-01 06:59:08 51°19.754 2°57.084 8.20265 3.373576 31.964945 -0.612702
2004-04-01 07:00:09 51°19.851 2°57.417 8.209979 3.372207 31.944503 -0.612702
2004-04-01 07:01:08 51°19.941 2°57.744 8.201782 3.371048 31.932329 -0.578993
2004-04-01 07:02:08 51°20.023 2°58.079 8.188375 3.378738 32.032091 -0.612702
2004-04-01 07:03:08 51°20.106 2°58.414 8.159816 3.37463 32.007846 -0.612702
2004-04-01 07:04:08 51°20.19 2°58.746 8.193005 3.355564 31.797549 -0.612702
2004-04-01 07:05:08 51°20.263 2°59.086 8.218947 3.345558 31.682661 -0.612702
2004-04-01 07:06:08 51°20.337 2°59.428 8.030224 3.339238 31.607327 -0.612702
2004-04-01 07:07:08 51°20.413 2°59.77 7.907878 3.315226 31.581316 -0.612702
2004-04-01 07:08:09 51°20.49 3°0.116 7.872748 3.308381 31.558743 -0.578993
2004-04-01 07:09:08 51°20.564 3°0.452 7.814171 3.304063 31.561378 -0.612702
2004-04-01 07:10:08 51°20.633 3°0.795 7.791706 3.299324 31.542171 -0.646411
2004-04-01 07:11:09 51°20.689 3°1.152 7.755347 3.303537 31.61182 -0.578993
2004-04-01 07:12:08 51°20.744 3°1.498 7.735727 3.303116 31.639994 -0.612702
2004-04-01 07:13:08 51°20.804 3°1.85 7.71027 3.298693 31.610497 -0.578993
2004-04-01 07:14:08 51°20.86 3°2.202 7.704341 3.298588 31.6261 -0.612702
2004-04-01 07:15:08 51°20.872 3°2.565 7.688254 3.299852 31.650186 -0.612702
2004-04-01 07:16:08 51°20.885 3°2.928 7.680573 3.298799 31.64965 -0.612702
2004-04-01 07:17:08 51°20.898 3°3.285 7.676781 3.295639 31.618336 -0.612702
2004-04-01 07:18:08 51°20.948 3°3.501 7.684754 3.293533 31.598982 -0.612702
2004-04-01 07:19:08 51°20.993 3°3.631 7.680573 3.29248 31.585503 -0.646411
2004-04-01 07:20:08 51°21.014 3°3.722 7.684122 3.292058 31.582544 -0.612702
2004-04-01 07:21:08 51°21.027 3°3.79 7.681983 3.29248 31.584743 -0.612702
2004-04-01 07:22:08 51°21.038 3°3.843 7.685678 3.292058 31.580264 -0.578993
2004-04-01 07:23:08 51°21.06 3°3.952 7.687136 3.292269 31.582503 -0.612702
2004-04-01 07:24:08 51°21.095 3°4.061 7.680379 3.292796 31.588862 -0.612702
2004-04-01 07:25:08 51°21.13 3°4.152 7.694524 3.292585 31.585102 -0.612702
2004-04-01 07:26:09 51°21.159 3°4.236 7.693844 3.291742 31.567029 -0.612702
2004-04-01 07:27:09 51°21.187 3°4.315 7.695739 3.291321 31.561033 -0.612702
2004-04-01 07:28:08 51°21.212 3°4.392 7.694232 3.291532 31.564031 -0.612702
2004-04-01 07:29:08 51°21.235 3°4.471 7.704827 3.291531 31.547335 -0.612702
2004-04-01 07:30:08 51°21.255 3°4.551 7.724457 3.290794 31.52965 -0.612702
2004-04-01 07:31:08 51°21.275 3°4.631 7.723388 3.29111 31.5277 -0.612702
2004-04-01 07:32:09 51°21.293 3°4.713 7.743012 3.290162 31.507038 -0.612702
2004-04-01 07:33:08 51°21.309 3°4.795 7.758794 3.289214 31.484123 -0.612702
2004-04-01 07:34:09 51°21.322 3°4.88 7.755007 3.289424 31.478043 -0.578993
2004-04-01 07:35:08 51°21.334 3°4.963 7.750054 3.290372 31.492631 -0.612702
2004-04-01 07:36:09 51°21.345 3°5.051 7.75593 3.290583 31.496378 -0.578993
2004-04-01 07:37:08 51°21.359 3°5.135 7.760931 3.290583 31.491841 -0.612702
2004-04-01 07:38:08 51°21.377 3°5.221 7.750588 3.290688 31.493714 -0.612702
2004-04-01 07:39:09 51°21.401 3°5.307 7.747383 3.291004 31.505385 -0.612702
2004-04-01 07:40:09 51°21.429 3°5.39 7.743352 3.291215 31.506863 -0.612702
2004-04-01 07:41:08 51°21.454 3°5.471 7.740049 3.29132 31.51252 -0.612702
2004-04-01 07:42:08 51°21.478 3°5.555 7.750345 3.290583 31.503941 -0.578993
2004-04-01 07:43:08 51°21.499 3°5.642 7.754133 3.290478 31.497529 -0.612702
2004-04-01 07:44:09 51°21.516 3°5.731 7.753696 3.288898 31.482283 -0.578993
2004-04-01 07:45:08 51°21.53 3°5.819 7.759717 3.289109 31.478471 -0.646411
2004-04-01 07:46:08 51°21.548 3°5.906 7.767194 3.288898 31.465662 -0.612702
2004-04-01 07:47:09 51°21.578 3°5.988 7.767631 3.288161 31.460111 -0.646411
2004-04-01 07:48:08 51°21.615 3°6.059 7.766854 3.28795 31.453348 -0.612702
2004-04-01 07:49:08 51°21.652 3°6.137 7.763213 3.288161 31.457846 -0.612702
2004-04-01 07:50:08 51°21.684 3°6.22 7.763407 3.287634 31.453773 -0.612702
2004-04-01 07:51:09 51°21.709 3°6.31 7.767534 3.287213 31.447042 -0.646411
2004-04-01 07:52:08 51°21.73 3°6.399 7.777534 3.286581 31.435817 -0.612702
2004-04-01 07:53:08 51°21.752 3°6.489 7.789668 3.285633 31.415972 -0.612702
2004-04-01 07:54:08 51°21.781 3°6.576 7.793356 3.285422 31.407714 -0.646411
2004-04-01 07:55:08 51°21.81 3°6.661 7.806846 3.284579 31.39051 -0.578993
2004-04-01 07:56:08 51°21.835 3°6.747 7.812134 3.283526 31.371836 -0.612702
2004-04-01 07:57:08 51°21.86 3°6.835 7.813832 3.282999 31.363255 -0.612702
2004-04-01 07:58:08 51°21.891 3°6.953 7.812765 3.28321 31.362478 -0.612702
2004-04-01 07:59:08 51°21.914 3°7.049 7.81878 3.282999 31.360249 -0.612702
2004-04-01 08:00:08 51°21.93 3°7.124 7.824358 3.282262 31.350192 -0.578993
2004-04-01 08:01:08 51°21.968 3°7.199 7.823097 3.282368 31.353561 -0.612702
2004-04-01 08:02:09 51°22.029 3°7.184 7.832749 3.280998 31.331563 -0.612702
2004-04-01 08:03:09 51°22.02 3°7.113 7.818052 3.28163 31.33975 -0.612702
2004-04-01 08:04:08 51°21.966 3°7.054 7.83629 3.282999 31.342977 -0.578993
2004-04-01 08:05:08 51°21.92 3°6.981 7.813638 3.283105 31.350096 -0.612702
2004-04-01 08:06:09 51°21.887 3°6.896 7.809126 3.284158 31.378526 -0.612702
2004-04-01 08:07:09 51°21.853 3°6.817 7.80078 3.284579 31.382986 -0.612702
2004-04-01 08:08:08 51°21.816 3°6.745 7.787484 3.285422 31.399432 -0.612702
2004-04-01 08:09:09 51°21.78 3°6.672 7.760154 3.287423 31.447766 -0.578993
2004-04-01 08:10:09 51°21.75 3°6.603 7.752919 3.288793 31.47512 -0.612702
2004-04-01 08:11:09 51°21.723 3°6.535 7.749908 3.28953 31.485962 -0.612702
2004-04-01 08:12:08 51°21.696 3°6.47 7.75894 3.289109 31.480738 -0.612702
2004-04-01 08:13:09 51°21.665 3°6.407 7.754764 3.288898 31.470948 -0.612702
2004-04-01 08:14:09 51°21.645 3°6.336 7.764912 3.290056 31.486256 -0.612702
2004-04-01 08:15:09 51°21.625 3°6.263 7.775155 3.290688 31.479357 -0.612702
2004-04-01 08:16:08 51°21.601 3°6.197 7.771709 3.292057 31.493116 -0.612702
2004-04-01 08:17:09 51°21.573 3°6.132 7.755347 3.292479 31.505141 -0.612702
2004-04-01 08:18:08 51°21.543 3°6.072 7.728149 3.293743 31.537466 -0.646411
2004-04-01 08:19:09 51°21.518 3°6.005 7.729946 3.293954 31.553342 -0.612702
2004-04-01 08:20:09 51°21.494 3°5.94 7.736698 3.293532 31.548111 -0.646411
2004-04-01 08:21:08 51°21.47 3°5.879 7.740195 3.293111 31.538335 -0.612702
2004-04-01 08:22:09 51°21.445 3°5.818 7.742138 3.293216 31.537938 -0.646411
2004-04-01 08:23:08 51°21.422 3°5.782 7.760639 3.292795 31.526651 -0.612702
2004-04-01 08:24:09 51°21.404 3°5.765 7.762727 3.293005 31.517533 -0.646411
2004-04-01 08:25:09 51°21.39 3°5.758 7.760154 3.293848 31.522687 -0.612702
2004-04-01 08:26:09 51°21.382 3°5.757 7.756609 3.293953 31.522291 -0.612702
2004-04-01 08:27:08 51°21.374 3°5.751 7.764281 3.293321 31.520128 -0.612702
2004-04-01 08:28:09 51°21.384 3°5.656 7.765009 3.292479 31.515731 -0.646411
2004-04-01 08:29:08 51°21.531 3°5.659 7.740535 3.296586 31.563853 -0.612702
2004-04-01 08:30:08 51°21.764 3°5.706 7.736358 3.296376 31.561618 -0.612702
2004-04-01 08:31:08 51°22 3°5.789 7.752045 3.298061 31.584809 -0.612702
2004-04-01 08:32:09 51°22.24 3°5.876 7.756804 3.294585 31.533534 -0.646411
2004-04-01 08:33:08 51°22.471 3°5.961 7.792531 3.29132 31.480014 -0.612702
2004-04-01 08:34:09 51°22.711 3°6.049 7.826881 3.291214 31.457769 -0.612702
2004-04-01 08:35:09 51°22.946 3°6.138 7.978033 3.295742 31.426656 -0.646411
2004-04-01 08:36:09 51°23.181 3°6.225 7.960998 3.309012 31.466157 -0.612702
2004-04-01 08:37:08 51°23.41 3°6.319 7.804177 3.316175 31.619245 -0.646411
2004-04-01 08:38:08 51°23.64 3°6.429 7.732861 3.316597 31.703222 -0.612702
2004-04-01 08:39:08 51°23.869 3°6.539 7.736455 3.313649 31.757944 -0.612702
2004-04-01 08:40:08 51°24.096 3°6.649 7.828287 3.32218 31.844009 -0.612702
2004-04-01 08:41:08 51°24.324 3°6.74 8.049174 3.331657 31.735193 -0.646411
2004-04-01 08:42:08 51°24.554 3°6.811 8.176847 3.333762 31.659306 -0.612702
2004-04-01 08:43:08 51°24.786 3°6.856 7.875705 3.352404 31.736525 -0.646411
2004-04-01 08:44:09 51°25.019 3°6.9 7.785834 3.369577 32.266856 -0.612702
2004-04-01 08:45:08 51°25.245 3°6.941 7.741652 3.365891 32.276418 -0.612702
2004-04-01 08:46:08 51°25.466 3°6.981 7.709881 3.362626 32.279648 -0.612702
2004-04-01 08:47:09 51°25.572 3°7.052 7.715615 3.36052 32.277384 -0.646411
2004-04-01 08:48:08 51°25.618 3°7.085 7.697489 3.360625 32.266868 -0.612702
2004-04-01 08:49:09 51°25.666 3°7.119 7.706042 3.359256 32.273231 -0.646411
2004-04-01 08:50:09 51°25.73 3°7.158 7.7144 3.359572 32.26263 -0.612702
2004-04-01 08:51:09 51°25.788 3°7.218 7.730141 3.359572 32.257976 -0.612702
2004-04-01 08:52:09 51°25.83 3°7.293 7.721542 3.359256 32.255386 -0.612702
2004-04-01 08:53:09 51°25.863 3°7.375 7.743935 3.359572 32.248674 -0.646411
2004-04-01 08:54:08 51°25.891 3°7.458 7.7451 3.359572 32.23628 -0.612702
2004-04-01 08:55:08 51°25.919 3°7.544 7.739418 3.359572 32.237828 -0.646411
2004-04-01 08:56:08 51°25.944 3°7.63 7.740875 3.359361 32.237909 -0.612702
2004-04-01 08:57:09 51°25.971 3°7.718 7.747771 3.359782 32.237747 -0.612702
2004-04-01 08:58:09 51°25.998 3°7.802 7.754861 3.359677 32.237401 -0.612702
2004-04-01 08:59:08 51°26.029 3°7.883 7.728878 3.359045 32.234546 -0.612702
2004-04-01 09:00:09 51°26.063 3°7.962 7.753453 3.358624 32.225416 -0.612702
2004-04-01 09:01:08 51°26.094 3°8.027 7.747431 3.359045 32.224482 -0.612702
2004-04-01 09:02:09 51°26.127 3°8.093 7.75593 3.359466 32.231287 -0.646411
2004-04-01 09:03:09 51°26.16 3°8.156 7.761465 3.359466 32.22587 -0.612702
2004-04-01 09:04:09 51°26.198 3°8.222 7.768359 3.360098 32.224083 -0.612702
2004-04-01 09:05:08 51°26.233 3°8.274 7.787144 3.360625 32.218857 -0.612702
2004-04-01 09:06:08 51°26.27 3°8.328 7.77365 3.360941 32.212168 -0.612702
2004-04-01 09:07:08 51°26.309 3°8.377 7.775641 3.360309 32.210086 -0.646411
2004-04-01 09:08:09 51°26.349 3°8.424 7.76967 3.360625 32.220403 -0.646411
2004-04-01 09:09:09 51°26.389 3°8.469 7.776466 3.360309 32.217043 -0.612702
2004-04-01 09:10:08 51°26.428 3°8.517 7.771709 3.360098 32.218668 -0.612702
2004-04-01 09:11:08 51°26.466 3°8.571 7.77501 3.359677 32.211095 -0.612702
2004-04-01 09:12:08 51°26.502 3°8.629 7.780203 3.360098 32.21171 -0.612702
2004-04-01 09:13:08 51°26.536 3°8.69 7.788066 3.360519 32.209235 -0.646411
2004-04-01 09:14:09 51°26.568 3°8.757 7.792482 3.360414 32.205024 -0.646411
2004-04-01 09:15:08 51°26.597 3°8.823 7.809029 3.360624 32.200312 -0.612702
2004-04-01 09:16:08 51°26.626 3°8.893 7.818343 3.361572 32.191088 -0.578993
2004-04-01 09:17:09 51°26.653 3°8.965 7.843709 3.361993 32.185536 -0.612702
2004-04-01 09:18:09 51°26.677 3°9.038 7.847152 3.36252 32.175712 -0.612702
2004-04-01 09:19:08 51°26.699 3°9.111 7.855879 3.362309 32.171935 -0.646411
2004-04-01 09:20:08 51°26.719 3°9.186 7.876189 3.364837 32.180275 -0.612702
2004-04-01 09:21:08 51°26.736 3°9.262 7.864896 3.365153 32.176698 -0.646411
2004-04-01 09:22:09 51°26.75 3°9.339 7.891309 3.3641 32.175533 -0.612702
2004-04-01 09:23:08 51°26.762 3°9.418 7.918632 3.369577 32.195127 -0.612702
2004-04-01 09:24:08 51°26.771 3°9.488 7.93287 3.370419 32.192518 -0.612702
2004-04-01 09:25:08 51°26.779 3°9.548 7.934468 3.371262 32.181458 -0.612702
2004-04-01 09:26:08 51°26.787 3°9.624 7.957125 3.371367 32.17182 -0.612702
2004-04-01 09:27:08 51°26.799 3°9.733 7.963853 3.371788 32.168603 -0.646411
2004-04-01 09:28:08 51°26.813 3°9.845 7.971258 3.371788 32.163232 -0.612702
2004-04-01 09:29:08 51°26.824 3°9.946 7.97871 3.370418 32.141842 -0.578993
2004-04-01 09:30:09 51°26.834 3°10.041 7.974016 3.369892 32.133205 -0.612702
2004-04-01 09:31:09 51°26.848 3°10.135 7.993032 3.369786 32.130559 -0.612702
2004-04-01 09:32:08 51°26.868 3°10.227 7.983307 3.37084 32.137868 -0.612702
2004-04-01 09:33:08 51°26.895 3°10.321 7.972032 3.371577 32.154099 -0.612702
2004-04-01 09:34:09 51°26.92 3°10.418 7.976146 3.370735 32.155921 -0.578993
2004-04-01 09:35:08 51°26.944 3°10.512 7.923378 3.370524 32.140657 -0.612702
2004-04-01 09:36:08 51°26.969 3°10.608 7.88186 3.368312 32.168661 -0.612702
2004-04-01 09:37:09 51°26.994 3°10.706 7.768456 3.366522 32.186602 -0.578993
2004-04-01 09:38:09 51°27.021 3°10.8 7.744615 3.360836 32.259032 -0.612702
2004-04-01 09:39:08 51°27.051 3°10.891 7.847976 3.361362 32.230565 -0.612702
2004-04-01 09:40:09 51°27.083 3°10.984 7.870422 3.363889 32.156369 -0.612702
2004-04-01 09:41:09 51°27.114 3°11.077 7.931901 3.365995 32.144113 -0.646411
2004-04-01 09:42:09 51°27.145 3°11.17 7.94754 3.367259 32.142914 -0.646411
2004-04-01 09:43:08 51°27.176 3°11.262 7.841721 3.365995 32.166398 -0.578993
2004-04-01 09:44:09 51°27.206 3°11.355 7.80311 3.360729 32.162868 -0.578993
2004-04-01 09:45:08 51°27.235 3°11.444 7.750831 3.35915 32.173067 -0.578993
2004-04-01 09:46:08 51°27.266 3°11.535 7.794424 3.358518 32.174066 -0.612702
2004-04-01 09:47:08 51°27.297 3°11.626 7.834786 3.360624 32.170996 -0.612702
2004-04-01 09:48:08 51°27.327 3°11.718 7.82722 3.361993 32.175515 -0.578993
2004-04-01 09:49:08 51°27.359 3°11.808 7.669732 3.35736 32.196498 -0.612702
2004-04-01 09:50:09 51°27.395 3°11.896 7.6025 3.352516 32.270495 -0.646411
2004-04-01 09:51:08 51°27.43 3°11.981 7.607513 3.349567 32.240565 -0.578993
2004-04-01 09:52:08 51°27.464 3°12.069 7.602646 3.349882 32.209769 -0.578993
2004-04-01 09:53:09 51°27.499 3°12.159 7.59184 3.349987 32.193835 -0.646411
2004-04-01 09:54:09 51°27.533 3°12.246 7.511953 3.349146 32.311647 -0.612702
2004-04-01 09:55:09 51°27.567 3°12.333 7.637925 3.345354 32.24769 -0.646411
2004-04-01 09:56:08 51°27.6 3°12.418 7.597487 3.345459 32.187403 -0.646411
2004-04-01 09:57:09 51°27.631 3°12.508 7.699579 3.344827 32.189971 -0.612702
2004-04-01 09:58:08 51°27.65 3°12.601 7.78064 3.349776 32.12973 -0.612702
2004-04-01 09:59:09 51°27.655 3°12.699 7.726983 3.35125 32.123043 -0.612702
2004-04-01 10:00:09 51°27.654 3°12.796 7.745343 3.346932 32.125714 -0.612702
2004-04-01 10:01:09 51°27.651 3°12.89 7.678677 3.347143 32.131819 -0.612702
2004-04-01 10:02:09 51°27.649 3°12.966 7.6262 3.345248 32.183604 -0.612702
2004-04-01 10:03:08 51°27.65 3°13.029 7.650961 3.343668 32.130353 -0.612702
2004-04-01 10:04:09 51°27.65 3°13.095 7.750637 3.343983 32.129853 -0.612702
2004-04-01 10:05:09 51°27.646 3°13.148 7.769281 3.348617 32.096592 -0.612702
2004-04-01 10:06:08 51°27.636 3°13.198 7.768941 3.348196 32.093654 -0.578993
2004-04-01 10:07:08 51°27.555 3°13.21 7.790056 3.348827 32.078045 -0.578993
2004-04-01 10:08:09 51°27.416 3°12.998 7.654268 3.345985 32.151178 -0.646411
2004-04-01 10:09:09 51°27.273 3°12.741 7.736067 3.349355 32.161555 -0.612702
2004-04-01 10:10:08 51°27.129 3°12.491 7.80835 3.3542 32.199223 -0.612702
2004-04-01 10:11:09 51°26.979 3°12.234 7.875414 3.362098 32.13892 -0.612702
2004-04-01 10:12:08 51°26.834 3°11.985 7.61968 3.358835 32.270293 -0.612702
2004-04-01 10:13:09 51°26.667 3°11.757 7.839927 3.360835 32.197146 -0.612702
2004-04-01 10:14:08 51°26.499 3°11.546 7.695739 3.36052 32.242497 -0.578993
2004-04-01 10:15:09 51°26.327 3°11.327 7.779864 3.35578 32.24938 -0.646411
2004-04-01 10:16:08 51°26.142 3°11.161 7.841963 3.359676 32.126298 -0.612702
2004-04-01 10:17:09 51°25.932 3°11.051 7.772971 3.358623 32.186763 -0.612702
2004-04-01 10:18:08 51°25.718 3°11.031 7.839539 3.35441 32.1181 -0.612702
2004-04-01 10:19:09 51°25.505 3°11.145 7.937857 3.352513 32.015872 -0.612702
2004-04-01 10:20:08 51°25.336 3°11.381 7.969661 3.353039 31.968736 -0.612702
2004-04-01 10:21:09 51°25.199 3°11.683 7.937518 3.354829 31.959462 -0.612702
2004-04-01 10:22:09 51°25.122 3°12.036 7.930255 3.342822 31.885071 -0.646411
2004-04-01 10:23:09 51°25.075 3°12.407 7.934613 3.342822 31.883548 -0.612702
2004-04-01 10:24:09 51°25.024 3°12.78 7.926478 3.342085 31.884885 -0.612702
2004-04-01 10:25:09 51°25.05 3°13.155 8.032254 3.349457 31.874609 -0.612702
2004-04-01 10:26:09 51°25.065 3°13.382 8.019102 3.344507 31.89985 -0.646411
2004-04-01 10:27:09 51°25.078 3°13.475 8.022584 3.353564 31.879256 -0.612702
2004-04-01 10:28:09 51°25.103 3°13.555 7.989307 3.347666 31.870131 -0.646411
2004-04-01 10:29:09 51°25.129 3°13.653 7.985533 3.344823 31.875038 -0.612702
2004-04-01 10:30:08 51°25.14 3°13.75 7.945362 3.345982 31.88272 -0.612702
2004-04-01 10:31:09 51°25.143 3°13.847 7.933548 3.341874 31.878089 -0.646411
2004-04-01 10:32:09 51°25.139 3°13.937 7.933693 3.338925 31.851459 -0.612702
2004-04-01 10:33:09 51°25.133 3°14.027 7.927156 3.335765 31.816519 -0.646411
2004-04-01 10:34:09 51°25.13 3°14.116 7.94207 3.333026 31.76632 -0.612702
2004-04-01 10:35:09 51°25.13 3°14.206 7.934129 3.331447 31.752656 -0.578993
2004-04-01 10:36:09 51°25.131 3°14.296 7.942408 3.32755 31.721319 -0.612702
2004-04-01 10:37:08 51°25.134 3°14.386 8.000723 3.328602 31.67499 -0.578993
2004-04-01 10:38:09 51°25.139 3°14.48 7.954995 3.324284 31.644514 -0.612702
2004-04-01 10:39:09 51°25.141 3°14.571 7.941682 3.319334 31.623941 -0.646411
2004-04-01 10:40:09 51°25.139 3°14.659 7.933209 3.316174 31.597358 -0.612702
2004-04-01 10:41:08 51°25.131 3°14.743 7.937663 3.314279 31.577335 -0.612702
2004-04-01 10:42:09 51°25.121 3°14.825 7.952381 3.312383 31.564094 -0.578993
2004-04-01 10:43:09 51°25.114 3°14.909 8.04579 3.316806 31.543058 -0.612702
2004-04-01 10:44:09 51°25.116 3°14.995 8.098361 3.320175 31.523787 -0.612702
2004-04-01 10:45:09 51°25.126 3°15.082 8.017023 3.316805 31.522037 -0.612702
2004-04-01 10:46:08 51°25.136 3°15.168 7.982001 3.312803 31.519638 -0.612702
2004-04-01 10:47:09 51°25.144 3°15.257 7.991145 3.310697 31.505683 -0.578993
2004-04-01 10:48:09 51°25.148 3°15.345 7.96908 3.311961 31.498741 -0.612702
2004-04-01 10:49:08 51°25.147 3°15.431 7.943667 3.308801 31.498453 -0.612702
2004-04-01 10:50:09 51°25.14 3°15.519 7.948073 3.307854 31.501975 -0.646411
2004-04-01 10:51:08 51°25.136 3°15.606 8.030272 3.30996 31.4904 -0.646411
2004-04-01 10:52:08 51°25.134 3°15.695 8.088652 3.312381 31.444761 -0.612702
2004-04-01 10:53:08 51°25.135 3°15.782 8.072903 3.309538 31.415588 -0.646411
2004-04-01 10:54:09 51°25.138 3°15.87 8.11198 3.311011 31.372932 -0.646411
2004-04-01 10:55:09 51°25.143 3°15.959 8.047144 3.306272 31.370053 -0.612702
2004-04-01 10:56:08 51°25.152 3°16.034 8.026887 3.301218 31.36087 -0.578993
2004-04-01 10:57:08 51°25.163 3°16.1 8.027516 3.30027 31.350145 -0.612702
2004-04-01 10:58:09 51°25.177 3°16.162 8.087106 3.301217 31.341477 -0.646411
2004-04-01 10:59:09 51°25.146 3°16.256 8.102949 3.30564 31.331395 -0.646411
2004-04-01 11:00:08 51°25.078 3°16.207 7.991774 3.301217 31.319131 -0.646411
2004-04-01 11:01:09 51°25.046 3°16.124 8.005706 3.2969 31.334057 -0.646411
2004-04-01 11:02:09 51°25.039 3°16.048 7.981323 3.297426 31.359769 -0.646411
2004-04-01 11:03:09 51°25.035 3°15.974 8.025969 3.300059 31.360616 -0.646411
2004-04-01 11:04:08 51°25.038 3°15.891 7.983355 3.30027 31.393483 -0.612702
2004-04-01 11:05:08 51°25.044 3°15.799 8.037959 3.301639 31.38697 -0.612702
2004-04-01 11:06:08 51°25.043 3°15.708 8.051349 3.304799 31.411283 -0.612702
2004-04-01 11:07:09 51°25.034 3°15.618 8.025098 3.308906 31.40222 -0.612702
2004-04-01 11:08:09 51°25.032 3°15.527 7.951849 3.303535 31.414427 -0.646411
2004-04-01 11:09:08 51°25.048 3°15.438 7.928173 3.299007 31.415356 -0.612702
2004-04-01 11:10:09 51°25.071 3°15.35 8.022342 3.300692 31.422642 -0.612702
2004-04-01 11:11:09 51°25.092 3°15.268 8.018619 3.320702 31.548078 -0.578993
2004-04-01 11:12:08 51°25.108 3°15.189 8.245359 3.32344 31.496765 -0.612702
2004-04-01 11:13:09 51°25.11 3°15.108 8.234275 3.332181 31.502702 -0.612702
2004-04-01 11:14:09 51°25.102 3°15.029 8.204338 3.333339 31.514846 -0.578993
2004-04-01 11:15:09 51°25.09 3°14.95 8.148476 3.330391 31.541378 -0.612702
2004-04-01 11:16:09 51°25.079 3°14.868 8.085754 3.328179 31.55929 -0.612702
2004-04-01 11:17:09 51°25.067 3°14.786 8.048111 3.326916 31.578229 -0.612702
2004-04-01 11:18:09 51°25.055 3°14.7 7.995644 3.323757 31.583253 -0.646411
2004-04-01 11:19:09 51°25.047 3°14.611 7.944006 3.318175 31.596626 -0.578993
2004-04-01 11:20:09 51°25.044 3°14.521 7.937373 3.316596 31.6003 -0.646411
2004-04-01 11:21:09 51°25.047 3°14.425 7.914127 3.317649 31.631053 -0.646411
2004-04-01 11:22:09 51°25.06 3°14.331 8.002803 3.320703 31.636137 -0.612702
2004-04-01 11:23:08 51°25.083 3°14.243 7.940375 3.323547 31.651823 -0.578993
2004-04-01 11:24:09 51°25.119 3°14.156 8.033801 3.325127 31.674547 -0.578993
2004-04-01 11:25:08 51°25.16 3°14.091 7.982001 3.338186 31.700614 -0.612702
2004-04-01 11:26:08 51°25.198 3°14.045 7.92086 3.32934 31.732669 -0.612702
2004-04-01 11:27:08 51°25.234 3°14.012 7.944297 3.330604 31.746783 -0.612702
2004-04-01 11:28:08 51°25.265 3°13.986 7.978372 3.331868 31.764689 -0.612702
2004-04-01 11:29:08 51°25.29 3°13.958 8.150358 3.342399 31.755544 -0.578993
2004-04-01 11:30:09 51°25.308 3°13.93 8.221453 3.35925 31.788848 -0.612702
2004-04-01 11:31:09 51°25.318 3°13.894 8.115939 3.361041 31.836258 -0.612702
2004-04-01 11:32:09 51°25.273 3°13.842 8.037669 3.351247 31.854071 -0.612702
2004-04-01 11:33:09 51°25.108 3°13.847 8.038684 3.350088 31.83202 -0.646411
2004-04-01 11:34:09 51°24.901 3°13.954 8.147655 3.33945 31.743342 -0.612702
2004-04-01 11:35:09 51°24.695 3°14.101 8.053234 3.33787 31.687499 -0.646411
2004-04-01 11:36:08 51°24.492 3°14.252 8.029692 3.330813 31.647813 -0.612702
2004-04-01 11:37:08 51°24.302 3°14.46 8.037524 3.323968 31.605021 -0.612702
2004-04-01 11:38:09 51°24.115 3°14.685 8.056279 3.32344 31.488549 -0.612702
2004-04-01 11:39:08 51°24.017 3°14.986 8.128975 3.314804 31.471748 -0.646411
2004-04-01 11:40:08 51°24.009 3°15.271 8.073192 3.312171 31.469478 -0.578993
2004-04-01 11:41:08 51°24.021 3°15.403 8.2891 3.320279 31.417373 -0.578993
2004-04-01 11:42:08 51°24.059 3°15.485 8.100051 3.329442 31.465073 -0.646411
2004-04-01 11:43:08 51°24.102 3°15.585 8.032883 3.314067 31.46773 -0.612702
2004-04-01 11:44:08 51°24.128 3°15.686 8.066814 3.307221 31.414363 -0.646411
2004-04-01 11:45:09 51°24.135 3°15.786 8.089329 3.308379 31.396681 -0.646411
2004-04-01 11:46:08 51°24.128 3°15.876 8.105219 3.310169 31.401335 -0.578993
2004-04-01 11:47:08 51°24.112 3°15.963 8.1086 3.305009 31.353783 -0.612702
2004-04-01 11:48:09 51°24.096 3°16.054 8.085077 3.303429 31.359528 -0.646411
2004-04-01 11:49:09 51°24.066 3°16.138 8.041875 3.29911 31.269491 -0.612702
2004-04-01 11:50:09 51°24.033 3°16.218 7.99458 3.287632 31.252092 -0.646411
2004-04-01 11:51:08 51°24.002 3°16.301 8.097154 3.286263 31.244371 -0.612702
2004-04-01 11:52:09 51°23.976 3°16.395 8.178921 3.299215 31.255015 -0.612702
2004-04-01 11:53:09 51°23.953 3°16.494 8.16411 3.305428 31.236517 -0.646411
2004-04-01 11:54:08 51°23.926 3°16.585 8.20969 3.298056 31.188095 -0.612702
2004-04-01 11:55:09 51°23.889 3°16.67 8.278023 3.298477 31.13206 -0.612702
2004-04-01 11:56:08 51°23.85 3°16.746 8.244444 3.29458 31.094246 -0.612702
2004-04-01 11:57:08 51°23.822 3°16.836 8.151516 3.284997 31.052753 -0.612702
2004-04-01 11:58:09 51°23.794 3°16.928 8.122361 3.276888 31.022204 -0.612702
2004-04-01 11:59:09 51°23.758 3°17.009 8.093483 3.271412 30.991247 -0.578993
2004-04-01 12:00:09 51°23.726 3°17.095 8.209208 3.275834 30.983958 -0.646411
2004-04-01 12:01:09 51°23.701 3°17.188 8.263331 3.286575 30.996635 -0.646411
2004-04-01 12:02:08 51°23.675 3°17.277 8.154846 3.282469 31.008657 -0.612702
2004-04-01 12:03:08 51°23.641 3°17.357 8.209256 3.273412 30.981345 -0.646411
2004-04-01 12:04:09 51°23.604 3°17.431 8.237167 3.288787 31.005101 -0.646411
2004-04-01 12:05:08 51°23.563 3°17.495 8.184082 3.284364 31.009418 -0.612702
2004-04-01 12:06:09 51°23.513 3°17.554 8.244588 3.285628 31.009438 -0.646411
2004-04-01 12:07:09 51°23.462 3°17.61 8.282743 3.289103 31.018653 -0.612702
2004-04-01 12:08:09 51°23.416 3°17.679 8.250997 3.291841 31.053135 -0.612702
2004-04-01 12:09:08 51°23.377 3°17.756 8.239817 3.294896 31.089469 -0.612702
2004-04-01 12:10:08 51°23.337 3°17.832 8.201493 3.295001 31.110416 -0.646411
2004-04-01 12:11:08 51°23.285 3°17.885 8.216054 3.293001 31.115231 -0.578993
2004-04-01 12:12:09 51°23.223 3°17.896 8.168018 3.296897 31.128779 -0.612702
2004-04-01 12:13:09 51°23.183 3°17.867 8.240107 3.289631 31.129308 -0.612702
2004-04-01 12:14:09 51°23.16 3°17.828 8.202698 3.297319 31.146442 -0.612702
2004-04-01 12:15:08 51°23.146 3°17.787 8.201975 3.295002 31.13692 -0.612702
2004-04-01 12:16:08 51°23.145 3°17.618 8.156679 3.294159 31.148738 -0.646411
2004-04-01 12:17:09 51°23.177 3°17.411 8.213354 3.295529 31.173421 -0.612702
2004-04-01 12:18:09 51°23.172 3°17.309 8.258176 3.304375 31.211457 -0.612702
2004-04-01 12:19:09 51°23.157 3°17.248 8.27075 3.306797 31.208036 -0.578993
2004-04-01 12:20:09 51°23.143 3°17.207 8.27836 3.307429 31.214646 -0.612702
2004-04-01 12:21:09 51°23.133 3°17.173 8.274314 3.307956 31.222367 -0.612702
2004-04-01 12:22:09 51°23.105 3°17.002 8.215379 3.309009 31.243718 -0.646411
2004-04-01 12:23:09 51°23.087 3°16.66 8.224683 3.307956 31.269649 -0.612702
2004-04-01 12:24:09 51°23.049 3°16.304 8.150261 3.311011 31.314248 -0.578993
2004-04-01 12:25:09 51°23.01 3°15.944 8.094111 3.309958 31.336596 -0.612702
2004-04-01 12:26:09 51°22.972 3°15.582 8.003142 3.299427 31.367404 -0.612702
2004-04-01 12:27:09 51°22.933 3°15.219 7.90255 3.295952 31.377883 -0.612702
2004-04-01 12:28:08 51°22.896 3°14.861 8.060629 3.306378 31.406987 -0.612702
2004-04-01 12:29:09 51°22.854 3°14.493 8.116084 3.31554 31.426464 -0.612702
2004-04-01 12:30:09 51°22.809 3°14.134 8.081503 3.313435 31.451357 -0.578993
2004-04-01 12:31:09 51°22.763 3°13.775 8.092951 3.310801 31.417682 -0.646411
2004-04-01 12:32:08 51°22.719 3°13.423 8.10348 3.309326 31.361187 -0.646411
2004-04-01 12:33:09 51°22.676 3°13.059 8.131244 3.306167 31.316857 -0.578993
2004-04-01 12:34:08 51°22.634 3°12.707 8.124437 3.300373 31.224949 -0.646411
2004-04-01 12:35:09 51°22.592 3°12.343 8.190208 3.291632 31.144384 -0.578993
2004-04-01 12:36:08 51°22.55 3°11.992 8.142394 3.288367 31.085844 -0.578993
2004-04-01 12:37:09 51°22.478 3°11.64 8.167005 3.280995 31.032889 -0.612702
2004-04-01 12:38:08 51°22.496 3°11.285 8.153302 3.276887 30.994994 -0.612702
2004-04-01 12:39:08 51°22.574 3°10.931 8.244781 3.271621 30.916371 -0.578993
2004-04-01 12:40:08 51°22.654 3°10.581 8.243432 3.284364 31.008685 -0.612702
2004-04-01 12:41:09 51°22.678 3°10.209 8.218898 3.29953 31.161486 -0.612702
2004-04-01 12:42:09 51°22.658 3°9.844 8.264536 3.305744 31.222098 -0.612702
2004-04-01 12:43:09 51°22.616 3°9.487 8.319575 3.315223 31.286572 -0.612702
2004-04-01 12:44:08 51°22.53 3°9.167 8.274603 3.323859 31.379892 -0.612702
2004-04-01 12:45:09 51°22.373 3°8.903 8.169659 3.323333 31.424855 -0.646411
2004-04-01 12:46:09 51°22.214 3°8.649 8.119126 3.31533 31.418287 -0.612702
2004-04-01 12:47:09 51°22.055 3°8.394 8.128444 3.311117 31.382228 -0.612702
2004-04-01 12:48:08 51°21.896 3°8.148 8.135009 3.30901 31.357869 -0.612702
2004-04-01 12:49:09 51°21.729 3°7.895 8.133272 3.308273 31.34715 -0.612702
2004-04-01 12:50:09 51°21.566 3°7.644 8.118064 3.308484 31.350106 -0.578993
2004-04-01 12:51:09 51°21.403 3°7.392 8.217404 3.314381 31.370376 -0.612702
2004-04-01 12:52:09 51°21.237 3°7.143 8.205688 3.319542 31.424524 -0.612702
2004-04-01 12:53:09 51°21.074 3°6.893 8.225406 3.325756 31.44504 -0.612702
2004-04-01 12:54:09 51°20.91 3°6.645 8.122216 3.323334 31.49043 -0.612702
2004-04-01 12:55:09 51°20.747 3°6.401 8.262319 3.32839 31.527838 -0.578993
2004-04-01 12:56:09 51°20.584 3°6.16 8.294974 3.339027 31.539414 -0.578993
2004-04-01 12:57:09 51°20.423 3°5.915 8.312547 3.337131 31.508397 -0.612702
2004-04-01 12:58:09 51°20.262 3°5.667 8.324244 3.335234 31.469977 -0.612702
2004-04-01 12:59:09 51°20.099 3°5.42 8.349074 3.333444 31.430483 -0.612702
2004-04-01 13:00:09 51°19.96 3°5.137 8.340365 3.331126 31.39886 -0.612702
2004-04-01 13:01:08 51°19.821 3°4.858 8.341616 3.328915 31.381667 -0.612702
2004-04-01 13:02:09 51°19.685 3°4.56 8.319431 3.32723 31.386257 -0.612702
2004-04-01 13:03:09 51°19.551 3°4.267 8.328672 3.328388 31.399113 -0.612702
2004-04-01 13:04:08 51°19.42 3°3.979 8.311248 3.331443 31.431799 -0.646411
2004-04-01 13:05:09 51°19.284 3°3.681 8.272436 3.334919 31.482271 -0.612702
2004-04-01 13:06:09 51°19.151 3°3.392 8.27706 3.336183 31.519313 -0.612702
2004-04-01 13:07:08 51°19.021 3°3.107 8.260922 3.340396 31.575384 -0.578993
2004-04-01 13:08:09 51°18.884 3°2.818 8.30393 3.347769 31.633975 -0.612702
2004-04-01 13:09:08 51°18.754 3°2.532 8.2943 3.353562 31.66476 -0.612702
2004-04-01 13:10:09 51°18.623 3°2.236 8.268148 3.350929 31.676814 -0.612702
2004-04-01 13:11:09 51°18.491 3°1.949 8.26863 3.352509 31.699369 -0.646411
2004-04-01 13:12:09 51°18.358 3°1.661 8.264873 3.355458 31.722796 -0.612702
2004-04-01 13:13:09 51°18.224 3°1.373 8.279179 3.356933 31.741257 -0.646411
2004-04-01 13:14:08 51°18.093 3°1.086 8.278312 3.359566 31.762115 -0.612702
2004-04-01 13:15:08 51°17.962 3°0.792 8.295889 3.361883 31.778903 -0.646411
2004-04-01 13:16:08 51°17.828 3°0.496 8.233022 3.362515 31.805064 -0.646411
2004-04-01 13:17:09 51°17.694 3°0.196 8.331848 3.364622 31.797851 -0.612702
2004-04-01 13:18:09 51°17.562 2°59.899 8.349074 3.366307 31.77425 -0.612702
2004-04-01 13:19:09 51°17.431 2°59.602 8.362592 3.367781 31.77695 -0.612702
2004-04-01 13:20:09 51°17.299 2°59.305 8.405003 3.369993 31.763416 -0.612702
2004-04-01 13:21:09 51°17.168 2°59.008 8.371778 3.375259 31.82747 -0.612702
2004-04-01 13:22:09 51°17.037 2°58.71 8.342482 3.376945 31.88264 -0.612702
2004-04-01 13:23:08 51°16.907 2°58.415 8.319623 3.375787 31.872761 -0.612702
2004-04-01 13:24:09 51°16.771 2°58.11 8.343541 3.377156 31.901395 -0.578993
2004-04-01 13:25:09 51°16.639 2°57.807 8.394523 3.383054 31.932324 -0.612702
2004-04-01 13:26:09 51°16.507 2°57.505 8.439988 3.385161 31.898756 -0.646411
2004-04-01 13:27:09 51°16.376 2°57.204 8.458626 3.384107 31.901253 -0.646411
2004-04-01 13:28:09 51°16.244 2°56.903 8.479515 3.382842 31.819153 -0.612702
2004-04-01 13:29:08 51°16.116 2°56.608 8.499342 3.381895 31.81972 -0.646411
2004-04-01 13:30:09 51°15.982 2°56.305 8.50011 3.381894 31.792096 -0.612702
2004-04-01 13:31:09 51°15.851 2°56.006 8.576574 3.383263 31.783259 -0.612702
2004-04-01 13:32:08 51°15.716 2°55.719 8.614916 3.384843 31.735747 -0.612702
2004-04-01 13:33:08 51°15.564 2°55.449 8.605716 3.387055 31.7491 -0.578993
2004-04-01 13:34:09 51°15.391 2°55.201 8.572595 3.385264 31.754985 -0.612702
2004-04-01 13:35:09 51°15.198 2°55.02 8.609406 3.382841 31.724581 -0.612702
2004-04-01 13:36:08 51°14.989 2°54.913 8.584867 3.389372 31.801457 -0.612702
2004-04-01 13:37:08 51°14.768 2°54.871 8.554421 3.389478 31.807765 -0.646411
2004-04-01 13:38:09 51°14.549 2°54.884 8.589996 3.392849 31.869719 -0.612702
2004-04-01 13:39:08 51°14.38 2°55.034 8.683635 3.376415 31.58386 -0.612702